ADDS METAR Data INFO
IDs: Format: Raw Decoded Include TAF

Data at: 1555 UTC 24 Sep 2017

KT35 241535Z AUTO 16006KT 10SM BKN016 BKN021 BKN026 28/22 A2994 RMK AO2 T02750221
KT35 241515Z AUTO 17006KT 10SM OVC015 28/23 A2993 RMK AO2 T02800232
KT35 241455Z AUTO 16007KT 10SM BKN011 26/23 A2992 RMK AO2 T02640230
KT35 241435Z AUTO 14006KT 10SM SCT011 26/23 A2992 RMK AO2 T02580229
KT35 241415Z AUTO 13004KT 7SM CLR 24/23 A2991 RMK AO2 T02380226
KT35 241355Z AUTO 00000KT 3SM BR CLR 22/22 A2991 RMK AO2 T02230219
KT35 241335Z AUTO 00000KT 2 1/2SM BR CLR 22/22 A2991 RMK AO2 T02210218
KT35 241315Z AUTO 00000KT 3/4SM BR BKN001 21/21 A2990 RMK AO2 T02120210
KT35 241255Z AUTO 00000KT M1/4SM FG OVC001 21/20 A2990 RMK AO2 T02060203
KT35 241235Z AUTO 00000KT 1/2SM FG OVC003 21/20 A2990 RMK AO2 T02050201
KT35 241215Z AUTO 00000KT 1SM BR BKN017 20/20 A2990 RMK AO2 T02030200
KT35 241155Z AUTO 00000KT 1 1/4SM BR BKN017 21/20 A2990 RMK AO2 T02050200 10240 20203
KT35 241135Z AUTO 00000KT 3/4SM BR VV005 20/20 A2989 RMK AO2 T02040200
KT35 241115Z AUTO 00000KT 3SM BR CLR 21/20 A2989 RMK AO2 T02070203
KT35 241055Z AUTO 11003KT 3SM BR CLR 21/20 A2989 RMK AO2 T02060202
KT35 241035Z AUTO 09003KT 1 1/4SM BR VV007 20/20 A2989 RMK AO2 T02030198
KT35 241015Z AUTO 00000KT 4SM BR CLR 21/20 A2988 RMK AO2 T02100204
KT35 240955Z AUTO 00000KT 5SM BR CLR 21/21 A2989 RMK AO2 T02110205
KT35 240935Z AUTO 00000KT 7SM CLR 21/21 A2989 RMK AO2 T02140206
KT35 240915Z AUTO 00000KT 10SM CLR 22/21 A2989 RMK AO2 T02190210
KT35 240855Z AUTO 15003KT 10SM CLR 22/21 A2989 RMK AO2 T02230212
KT35 240835Z AUTO 17003KT 10SM CLR 22/21 A2990 RMK AO2 T02200208
KT35 240815Z AUTO 00000KT 10SM CLR 22/21 A2990 RMK AO2 T02210209
KT35 240755Z AUTO 00000KT 10SM CLR 23/21 A2990 RMK AO2 T02250208
KT35 240735Z AUTO 00000KT 10SM CLR 23/21 A2990 RMK AO2 T02290211
KT35 240715Z AUTO 00000KT 10SM CLR 23/21 A2990 RMK AO2 T02310210
KT35 240655Z AUTO 16003KT 10SM CLR 23/21 A2989 RMK AO2 LTG DSNT W T02340210
KT35 240635Z AUTO 15004KT 10SM CLR 24/21 A2989 RMK AO2 T02370210
KT35 240615Z AUTO 16005KT 10SM CLR 24/21 A2989 RMK AO2 T02380210
KT35 240555Z AUTO 17004KT 10SM CLR 24/21 A2989 RMK AO2 T02400210 10304 20240 403330200
KT35 240535Z AUTO 15003KT 10SM CLR 24/21 A2989 RMK AO2 T02420210
KT35 240515Z AUTO 15003KT 10SM CLR 25/21 A2989 RMK AO2 T02450210
KT35 240455Z AUTO 14004KT 10SM CLR 25/21 A2989 RMK AO2 T02500210
KT35 240435Z AUTO 14005KT 10SM CLR 25/21 A2989 RMK AO2 T02530210
KT35 240415Z AUTO 15006KT 10SM CLR 26/21 A2989 RMK AO2 T02550209
KT35 240355Z AUTO 14005KT 10SM CLR 26/21 A2989 RMK AO2 T02580208
KT35 240335Z AUTO 13004KT 10SM CLR 26/21 A2988 RMK AO2 T02620208
KT35 240315Z AUTO 14005KT 10SM CLR 26/21 A2988 RMK AO2 T02630206
KT35 240255Z AUTO 14005KT 10SM CLR 26/21 A2988 RMK AO2 T02620205
KT35 240235Z AUTO 00000KT 10SM CLR 26/21 A2988 RMK AO2 T02590205
KT35 240215Z AUTO 12003KT 10SM CLR 26/21 A2987 RMK AO2 T02620205
KT35 240155Z AUTO 13003KT 10SM CLR 27/21 A2987 RMK AO2 T02700205
KT35 240135Z AUTO 14003KT 10SM CLR 27/21 A2987 RMK AO2 T02700205
KT35 240115Z AUTO 14004KT 10SM CLR 28/20 A2986 RMK AO2 T02750202
KT35 240055Z AUTO 13005KT 10SM CLR 28/20 A2986 RMK AO2 T02830200
KT35 240035Z AUTO 13005KT 10SM CLR 29/20 A2985 RMK AO2 T02900199
KT35 240015Z AUTO 13004KT 10SM CLR 30/20 A2985 RMK AO2 T02960198
KT35 232355Z AUTO 14004KT 10SM CLR 31/20 A2985 RMK AO2 T03050196 10333 20304
KT35 232335Z AUTO 13004KT 10SM CLR 31/20 A2985 RMK AO2 T03110195
KT35 232315Z AUTO 13006KT 10SM CLR 32/19 A2985 RMK AO2 T03160191
KT35 232255Z AUTO 14007KT 120V180 10SM CLR 32/19 A2985 RMK AO2 T03200188
KT35 232235Z AUTO 11005KT 10SM CLR 32/19 A2986 RMK AO2 T03230194
KT35 232215Z AUTO 14006KT 10SM CLR 32/19 A2986 RMK AO2 T03240186
KT35 232155Z AUTO 14008KT 10SM CLR 33/18 A2986 RMK AO2 T03260183
KT35 232135Z AUTO 15009KT 10SM CLR 33/19 A2986 RMK AO2 T03280188
KT35 232115Z AUTO 15008KT 10SM CLR 33/19 A2987 RMK AO2 T03250190
KT35 232055Z AUTO 16006KT 10SM CLR 33/20 A2988 RMK AO2 T03250195
KT35 232035Z AUTO 17007KT 10SM CLR 33/20 A2989 RMK AO2 T03280195
KT35 232015Z AUTO 16006KT 110V180 10SM SCT048 SCT065 33/19 A2989 RMK AO2 T03260194
KT35 231955Z AUTO 18008KT 10SM SCT046 BKN065 33/20 A2990 RMK AO2 T03300200
KT35 231935Z AUTO 19007KT 10SM SCT046 SCT060 33/20 A2990 RMK AO2 T03260200
KT35 231915Z AUTO 15008KT 10SM SCT042 SCT048 SCT050 32/20 A2991 RMK AO2 T03200202
KT35 231855Z AUTO 14007KT 10SM SCT042 SCT050 31/20 A2991 RMK AO2 T03070204
KT35 231835Z AUTO 18007KT 10SM CLR 31/21 A2992 RMK AO2 T03130206
KT35 231815Z AUTO 15005KT 10SM CLR 31/21 A2993 RMK AO2 T03140209
KT35 231755Z AUTO 14008KT 10SM SCT036 SCT042 32/21 A2994 RMK AO2 T03150210 10315 20200
KT35 231735Z AUTO 15008KT 10SM SCT034 SCT045 30/21 A2995 RMK AO2 T03040213
KT35 231715Z AUTO 18005KT 10SM SCT045 29/21 A2995 RMK AO2 T02930213
KT35 231655Z AUTO 15006KT 10SM SCT024 SCT032 30/22 A2996 RMK AO2 T02960215
KT35 231635Z AUTO 14003KT 10SM SCT024 BKN029 BKN035 29/22 A2996 RMK AO2 T02890223
KT35 231615Z AUTO 00000KT 10SM SCT018 BKN022 28/23 A2996 RMK AO2 T02840225
KT35 231555Z AUTO 13003KT 10SM SCT014 SCT019 28/23 A2996 RMK AO2 T02780228
KT35 231535Z AUTO 15004KT 10SM SCT012 27/23 A2996 RMK AO2 T02710230
KT35 231515Z AUTO 13005KT 10SM SCT008 SCT012 27/23 A2996 RMK AO2 T02650230
KT35 231455Z AUTO 13005KT 10SM OVC006 26/23 A2996 RMK AO2 T02570230
KT35 231435Z AUTO 15005KT 10SM OVC004 24/23 A2996 RMK AO2 T02350230
KT35 231415Z AUTO 00000KT 3SM BR OVC002 23/23 A2996 RMK AO2 T02300227
KT35 231355Z AUTO 00000KT 1/4SM FG OVC002 22/22 A2995 RMK AO2 T02210218
KT35 231335Z AUTO 00000KT M1/4SM FG OVC002 22/22 A2995 RMK AO2 T02180215
KT35 231315Z AUTO 00000KT M1/4SM FG OVC002 22/21 A2994 RMK AO2 T02150211
KT35 231255Z AUTO 00000KT 2SM BR OVC002 21/21 A2994 RMK AO2 T02100206
KT35 231235Z AUTO 00000KT 1/2SM FG BKN004 20/20 A2994 RMK AO2 T02010197
KT35 231215Z AUTO 00000KT 2SM BR CLR 20/20 A2994 RMK AO2 T02010196
KT35 231155Z AUTO 00000KT 4SM BR CLR 20/20 A2994 RMK AO2 T02030199 10240 20202
KT35 231135Z AUTO 00000KT 4SM BR CLR 21/20 A2994 RMK AO2 T02050200
KT35 231115Z AUTO 00000KT 3SM BR CLR 21/20 A2993 RMK AO2 T02070203
KT35 231055Z AUTO 00000KT 4SM BR CLR 21/20 A2993 RMK AO2 T02060202
KT35 231035Z AUTO 00000KT 2 1/2SM BR CLR 21/20 A2993 RMK AO2 T02050201
KT35 231015Z AUTO 00000KT 4SM BR CLR 21/21 A2993 RMK AO2 T02100205
KT35 230955Z AUTO 00000KT 5SM BR CLR 21/21 A2993 RMK AO2 T02110206
KT35 230935Z AUTO 00000KT 10SM CLR 21/20 A2993 RMK AO2 T02090204
KT35 230915Z AUTO 00000KT 5SM BR CLR 21/21 A2993 RMK AO2 T02120206
KT35 230855Z AUTO 00000KT 5SM BR CLR 21/21 A2993 RMK AO2 T02120205
KT35 230835Z AUTO 00000KT 10SM CLR 22/21 A2993 RMK AO2 T02150207
KT35 230815Z AUTO 00000KT 10SM CLR 22/21 A2993 RMK AO2 T02150205
KT35 230755Z AUTO 00000KT 10SM CLR 22/21 A2993 RMK AO2 T02180208
KT35 230735Z AUTO 00000KT 10SM CLR 22/21 A2993 RMK AO2 T02220208
KT35 230715Z AUTO 00000KT 10SM CLR 23/21 A2992 RMK AO2 T02310210
KT35 230655Z AUTO 17003KT 10SM CLR 23/21 A2993 RMK AO2 T02320210
KT35 230635Z AUTO 18003KT 10SM CLR 23/21 A2993 RMK AO2 T02330210
KT35 230615Z AUTO 00000KT 10SM CLR 24/21 A2993 RMK AO2 T02350210
KT35 230555Z AUTO 16003KT 10SM CLR 24/21 A2993 RMK AO2 T02400211 10303 20240 403350221
KT35 230535Z AUTO 16003KT 10SM CLR 24/21 A2994 RMK AO2 T02430211
KT35 230515Z AUTO 16003KT 10SM CLR 25/21 A2993 RMK AO2 T02460211
KT35 230455Z AUTO 16003KT 10SM CLR 25/21 A2993 RMK AO2 T02500212
KT35 230435Z AUTO 17006KT 10SM CLR 25/21 A2993 RMK AO2 T02500212
KT35 230415Z AUTO 17004KT 10SM CLR 25/21 A2993 RMK AO2 T02460210